sensor_id;sensor_type;location;lat;lon;timestamp;pressure;altitude;pressure_sealevel;temperature;humidity
51603;BME280;37954;51.980;5.850;2024-02-23T00:03:23;98365.13;;;5.87;100.00
51603;BME280;37954;51.980;5.850;2024-02-23T00:07:35;98363.69;;;5.80;100.00
51603;BME280;37954;51.980;5.850;2024-02-23T00:11:46;98346.41;;;5.82;100.00
51603;BME280;37954;51.980;5.850;2024-02-23T00:15:59;98357.38;;;5.86;100.00
51603;BME280;37954;51.980;5.850;2024-02-23T00:20:11;98360.53;;;5.83;100.00
51603;BME280;37954;51.980;5.850;2024-02-23T00:24:23;98376.41;;;5.94;100.00
51603;BME280;37954;51.980;5.850;2024-02-23T00:28:34;98364.94;;;5.94;100.00
51603;BME280;37954;51.980;5.850;2024-02-23T00:32:46;98352.00;;;5.81;100.00
51603;BME280;37954;51.980;5.850;2024-02-23T00:36:58;98369.72;;;5.92;100.00
51603;BME280;37954;51.980;5.850;2024-02-23T00:41:09;98401.28;;;6.05;100.00
51603;BME280;37954;51.980;5.850;2024-02-23T00:45:21;98405.53;;;6.06;100.00
51603;BME280;37954;51.980;5.850;2024-02-23T00:49:33;98409.22;;;6.00;100.00
51603;BME280;37954;51.980;5.850;2024-02-23T00:53:45;98420.38;;;5.97;100.00
51603;BME280;37954;51.980;5.850;2024-02-23T00:57:56;98427.50;;;5.91;100.00
51603;BME280;37954;51.980;5.850;2024-02-23T01:02:08;98404.72;;;5.57;100.00
51603;BME280;37954;51.980;5.850;2024-02-23T01:06:21;98439.31;;;5.79;100.00
51603;BME280;37954;51.980;5.850;2024-02-23T01:10:32;98440.31;;;5.73;100.00
51603;BME280;37954;51.980;5.850;2024-02-23T01:14:44;98444.28;;;5.92;100.00
51603;BME280;37954;51.980;5.850;2024-02-23T01:18:56;98461.25;;;5.86;100.00
51603;BME280;37954;51.980;5.850;2024-02-23T01:23:08;98463.63;;;6.04;100.00
51603;BME280;37954;51.980;5.850;2024-02-23T01:27:19;98450.06;;;6.06;100.00
51603;BME280;37954;51.980;5.850;2024-02-23T01:31:31;98461.00;;;6.09;100.00
51603;BME280;37954;51.980;5.850;2024-02-23T01:35:43;98460.66;;;6.01;100.00
51603;BME280;37954;51.980;5.850;2024-02-23T01:39:55;98479.47;;;6.16;100.00
51603;BME280;37954;51.980;5.850;2024-02-23T01:44:06;98433.00;;;5.85;100.00
51603;BME280;37954;51.980;5.850;2024-02-23T01:48:18;98461.81;;;5.88;100.00
51603;BME280;37954;51.980;5.850;2024-02-23T01:52:30;98473.63;;;5.75;100.00
51603;BME280;37954;51.980;5.850;2024-02-23T01:56:42;98484.75;;;5.67;100.00
51603;BME280;37954;51.980;5.850;2024-02-23T02:00:54;98480.56;;;5.54;100.00
51603;BME280;37954;51.980;5.850;2024-02-23T02:05:06;98498.09;;;5.50;100.00
51603;BME280;37954;51.980;5.850;2024-02-23T02:09:19;98502.53;;;5.45;100.00
51603;BME280;37954;51.980;5.850;2024-02-23T02:13:31;98504.31;;;5.39;100.00
51603;BME280;37954;51.980;5.850;2024-02-23T02:17:43;98506.91;;;5.34;100.00
51603;BME280;37954;51.980;5.850;2024-02-23T02:21:56;98491.22;;;5.16;100.00
51603;BME280;37954;51.980;5.850;2024-02-23T02:26:08;98520.63;;;5.26;100.00
51603;BME280;37954;51.980;5.850;2024-02-23T02:30:20;98524.09;;;5.27;100.00
51603;BME280;37954;51.980;5.850;2024-02-23T02:34:31;98494.75;;;5.05;100.00
51603;BME280;37954;51.980;5.850;2024-02-23T02:38:43;98527.72;;;5.20;100.00
51603;BME280;37954;51.980;5.850;2024-02-23T02:42:55;98532.22;;;5.20;100.00
51603;BME280;37954;51.980;5.850;2024-02-23T02:47:07;98524.44;;;5.13;100.00
51603;BME280;37954;51.980;5.850;2024-02-23T02:51:19;98537.16;;;5.28;100.00
51603;BME280;37954;51.980;5.850;2024-02-23T02:55:30;98540.06;;;5.27;100.00
51603;BME280;37954;51.980;5.850;2024-02-23T02:59:44;98555.31;;;5.31;100.00
51603;BME280;37954;51.980;5.850;2024-02-23T03:03:57;98537.16;;;5.28;100.00
51603;BME280;37954;51.980;5.850;2024-02-23T03:08:09;98541.75;;;5.33;100.00
51603;BME280;37954;51.980;5.850;2024-02-23T03:12:20;98546.66;;;5.41;100.00
51603;BME280;37954;51.980;5.850;2024-02-23T03:16:32;98542.56;;;5.33;100.00
51603;BME280;37954;51.980;5.850;2024-02-23T03:20:45;98540.88;;;5.27;100.00
51603;BME280;37954;51.980;5.850;2024-02-23T03:24:57;98532.78;;;5.22;100.00
51603;BME280;37954;51.980;5.850;2024-02-23T03:29:09;98534.84;;;5.15;100.00
51603;BME280;37954;51.980;5.850;2024-02-23T03:33:21;98530.78;;;5.12;100.00
51603;BME280;37954;51.980;5.850;2024-02-23T03:37:33;98574.19;;;5.30;100.00
51603;BME280;37954;51.980;5.850;2024-02-23T03:41:45;98552.31;;;5.28;100.00
51603;BME280;37954;51.980;5.850;2024-02-23T03:45:56;98555.22;;;5.43;100.00
51603;BME280;37954;51.980;5.850;2024-02-23T03:50:08;98568.19;;;5.39;100.00
51603;BME280;37954;51.980;5.850;2024-02-23T03:54:20;98570.38;;;5.25;100.00
51603;BME280;37954;51.980;5.850;2024-02-23T03:58:32;98575.94;;;5.24;100.00
51603;BME280;37954;51.980;5.850;2024-02-23T04:02:44;98567.56;;;5.15;100.00
51603;BME280;37954;51.980;5.850;2024-02-23T04:06:55;98594.19;;;5.15;100.00
51603;BME280;37954;51.980;5.850;2024-02-23T04:11:07;98577.56;;;5.08;100.00
51603;BME280;37954;51.980;5.850;2024-02-23T04:15:19;98595.47;;;5.13;100.00
51603;BME280;37954;51.980;5.850;2024-02-23T04:19:30;98611.59;;;5.23;100.00
51603;BME280;37954;51.980;5.850;2024-02-23T04:23:45;98623.22;;;5.17;100.00
51603;BME280;37954;51.980;5.850;2024-02-23T04:27:57;98602.63;;;5.12;100.00
51603;BME280;37954;51.980;5.850;2024-02-23T04:32:09;98595.19;;;4.98;100.00
51603;BME280;37954;51.980;5.850;2024-02-23T04:36:21;98590.50;;;4.88;100.00
51603;BME280;37954;51.980;5.850;2024-02-23T04:40:35;98614.56;;;5.10;100.00
51603;BME280;37954;51.980;5.850;2024-02-23T04:44:47;98616.19;;;5.11;100.00
51603;BME280;37954;51.980;5.850;2024-02-23T04:49:01;98653.34;;;5.22;100.00
51603;BME280;37954;51.980;5.850;2024-02-23T04:53:13;98634.66;;;5.17;100.00
51603;BME280;37954;51.980;5.850;2024-02-23T04:57:25;98639.66;;;5.14;100.00
51603;BME280;37954;51.980;5.850;2024-02-23T05:01:37;98621.56;;;4.99;100.00
51603;BME280;37954;51.980;5.850;2024-02-23T05:05:49;98657.63;;;5.23;100.00
51603;BME280;37954;51.980;5.850;2024-02-23T05:10:05;98655.72;;;5.36;100.00
51603;BME280;37954;51.980;5.850;2024-02-23T05:14:17;98650.94;;;5.38;100.00
51603;BME280;37954;51.980;5.850;2024-02-23T05:18:29;98647.91;;;5.46;100.00
51603;BME280;37954;51.980;5.850;2024-02-23T05:22:41;98641.53;;;5.47;100.00
51603;BME280;37954;51.980;5.850;2024-02-23T05:26:53;98655.41;;;5.66;100.00
51603;BME280;37954;51.980;5.850;2024-02-23T05:31:04;98634.75;;;5.56;100.00
51603;BME280;37954;51.980;5.850;2024-02-23T05:35:16;98650.22;;;5.76;100.00
51603;BME280;37954;51.980;5.850;2024-02-23T05:39:28;98624.41;;;5.59;100.00
51603;BME280;37954;51.980;5.850;2024-02-23T05:43:40;98643.47;;;5.85;100.00
51603;BME280;37954;51.980;5.850;2024-02-23T05:47:52;98635.28;;;5.75;100.00
51603;BME280;37954;51.980;5.850;2024-02-23T05:52:04;98649.84;;;5.84;100.00
51603;BME280;37954;51.980;5.850;2024-02-23T05:56:16;98646.78;;;5.92;100.00
51603;BME280;37954;51.980;5.850;2024-02-23T06:00:27;98661.53;;;6.00;99.87
51603;BME280;37954;51.980;5.850;2024-02-23T06:04:42;98646.78;;;5.92;99.59
51603;BME280;37954;51.980;5.850;2024-02-23T06:08:54;98647.66;;;5.98;99.40
51603;BME280;37954;51.980;5.850;2024-02-23T06:13:06;98648.94;;;5.95;98.77
51603;BME280;37954;51.980;5.850;2024-02-23T06:17:18;98644.91;;;5.92;97.71
51603;BME280;37954;51.980;5.850;2024-02-23T06:21:29;98631.28;;;5.89;98.01
51603;BME280;37954;51.980;5.850;2024-02-23T06:25:41;98644.44;;;5.96;98.30
51603;BME280;37954;51.980;5.850;2024-02-23T06:29:56;98655.91;;;5.96;98.46
51603;BME280;37954;51.980;5.850;2024-02-23T06:34:08;98644.19;;;5.80;97.54
51603;BME280;37954;51.980;5.850;2024-02-23T06:38:20;98639.34;;;5.77;97.36
51603;BME280;37954;51.980;5.850;2024-02-23T06:42:35;98650.97;;;5.88;97.57
51603;BME280;37954;51.980;5.850;2024-02-23T06:46:47;98651.28;;;5.91;98.65
51603;BME280;37954;51.980;5.850;2024-02-23T06:50:58;98651.94;;;5.99;98.13
51603;BME280;37954;51.980;5.850;2024-02-23T06:55:10;98657.34;;;6.04;97.48
51603;BME280;37954;51.980;5.850;2024-02-23T06:59:22;98644.84;;;6.04;97.38
51603;BME280;37954;51.980;5.850;2024-02-23T07:03:35;98640.13;;;6.11;97.78
51603;BME280;37954;51.980;5.850;2024-02-23T07:07:48;98622.75;;;6.09;97.47
51603;BME280;37954;51.980;5.850;2024-02-23T07:12:00;98648.75;;;6.18;96.15
51603;BME280;37954;51.980;5.850;2024-02-23T07:16:12;98645.91;;;6.25;95.74
51603;BME280;37954;51.980;5.850;2024-02-23T07:20:24;98638.41;;;6.22;95.62
51603;BME280;37954;51.980;5.850;2024-02-23T07:24:39;98647.81;;;6.29;95.12
51603;BME280;37954;51.980;5.850;2024-02-23T07:28:52;98649.38;;;6.25;93.79
51603;BME280;37954;51.980;5.850;2024-02-23T07:33:04;98655.66;;;6.36;93.92
51603;BME280;37954;51.980;5.850;2024-02-23T07:37:15;98647.66;;;6.36;93.81
51603;BME280;37954;51.980;5.850;2024-02-23T07:41:27;98664.91;;;6.50;92.89
51603;BME280;37954;51.980;5.850;2024-02-23T07:45:42;98666.75;;;6.50;92.54
51603;BME280;37954;51.980;5.850;2024-02-23T07:49:54;98657.69;;;6.51;91.47
51603;BME280;37954;51.980;5.850;2024-02-23T07:54:06;98660.47;;;6.61;90.86
51603;BME280;37954;51.980;5.850;2024-02-23T07:58:17;98649.88;;;6.66;90.54
51603;BME280;37954;51.980;5.850;2024-02-23T08:02:30;98645.41;;;6.72;90.24
51603;BME280;37954;51.980;5.850;2024-02-23T08:06:44;98639.06;;;6.78;89.70
51603;BME280;37954;51.980;5.850;2024-02-23T08:10:56;98631.75;;;6.90;88.69
51603;BME280;37954;51.980;5.850;2024-02-23T08:15:08;98660.69;;;7.30;87.74
51603;BME280;37954;51.980;5.850;2024-02-23T08:19:20;98657.75;;;7.31;86.80
51603;BME280;37954;51.980;5.850;2024-02-23T08:23:31;98657.50;;;7.33;86.73
51603;BME280;37954;51.980;5.850;2024-02-23T08:27:43;98659.88;;;7.29;85.88
51603;BME280;37954;51.980;5.850;2024-02-23T08:31:55;98654.25;;;7.26;85.97
51603;BME280;37954;51.980;5.850;2024-02-23T08:36:07;98649.44;;;7.28;85.40
51603;BME280;37954;51.980;5.850;2024-02-23T08:40:19;98647.75;;;7.44;87.61
51603;BME280;37954;51.980;5.850;2024-02-23T08:44:31;98633.28;;;7.45;85.71
51603;BME280;37954;51.980;5.850;2024-02-23T08:48:42;98625.13;;;7.56;84.90
51603;BME280;37954;51.980;5.850;2024-02-23T08:52:55;98630.44;;;7.88;84.68
51603;BME280;37954;51.980;5.850;2024-02-23T08:57:06;98616.59;;;8.01;83.63
51603;BME280;37954;51.980;5.850;2024-02-23T09:01:18;98623.00;;;7.95;82.06
51603;BME280;37954;51.980;5.850;2024-02-23T09:05:30;98609.09;;;7.93;81.69
51603;BME280;37954;51.980;5.850;2024-02-23T09:09:42;98616.78;;;7.85;81.23
51603;BME280;37954;51.980;5.850;2024-02-23T09:13:54;98612.69;;;7.72;81.08
51603;BME280;37954;51.980;5.850;2024-02-23T09:18:05;98617.84;;;7.84;81.98
51603;BME280;37954;51.980;5.850;2024-02-23T09:22:17;98605.22;;;7.74;82.13
51603;BME280;37954;51.980;5.850;2024-02-23T09:26:29;98609.25;;;7.82;83.12
51603;BME280;37954;51.980;5.850;2024-02-23T09:30:41;98611.34;;;7.69;81.99
51603;BME280;37954;51.980;5.850;2024-02-23T09:34:53;98613.25;;;7.74;82.25
51603;BME280;37954;51.980;5.850;2024-02-23T09:39:04;98607.34;;;7.72;82.15
51603;BME280;37954;51.980;5.850;2024-02-23T09:43:16;98613.78;;;7.76;82.78
51603;BME280;37954;51.980;5.850;2024-02-23T09:47:29;98623.44;;;7.82;83.14
51603;BME280;37954;51.980;5.850;2024-02-23T09:51:41;98604.69;;;7.72;83.29
51603;BME280;37954;51.980;5.850;2024-02-23T09:55:53;98607.44;;;7.87;83.98
51603;BME280;37954;51.980;5.850;2024-02-23T10:00:06;98654.38;;;8.15;82.52
51603;BME280;37954;51.980;5.850;2024-02-23T10:04:23;98656.31;;;8.25;81.75
51603;BME280;37954;51.980;5.850;2024-02-23T10:08:35;98660.19;;;8.44;81.35
51603;BME280;37954;51.980;5.850;2024-02-23T10:12:47;98645.38;;;8.31;81.79
51603;BME280;37954;51.980;5.850;2024-02-23T10:16:59;98658.44;;;8.23;82.79
51603;BME280;37954;51.980;5.850;2024-02-23T10:21:11;98652.72;;;8.04;84.29
51603;BME280;37954;51.980;5.850;2024-02-23T10:25:23;98654.53;;;7.98;85.74
51603;BME280;37954;51.980;5.850;2024-02-23T10:29:35;98686.66;;;8.03;85.89
51603;BME280;37954;51.980;5.850;2024-02-23T10:33:47;98693.84;;;7.98;86.79
51603;BME280;37954;51.980;5.850;2024-02-23T10:38:04;98690.53;;;7.86;87.80
51603;BME280;37954;51.980;5.850;2024-02-23T10:42:18;98679.81;;;7.81;88.58
51603;BME280;37954;51.980;5.850;2024-02-23T10:46:34;98683.13;;;7.93;90.40
51603;BME280;37954;51.980;5.850;2024-02-23T10:50:46;98697.97;;;8.16;88.43
51603;BME280;37954;51.980;5.850;2024-02-23T10:55:01;98702.38;;;8.32;87.30
51603;BME280;37954;51.980;5.850;2024-02-23T10:59:19;98692.44;;;8.27;87.00
51603;BME280;37954;51.980;5.850;2024-02-23T11:03:36;98683.03;;;8.20;86.67
51603;BME280;37954;51.980;5.850;2024-02-23T11:07:49;98707.72;;;8.32;85.20
51603;BME280;37954;51.980;5.850;2024-02-23T11:12:03;98716.00;;;8.30;85.97
51603;BME280;37954;51.980;5.850;2024-02-23T11:16:22;98714.66;;;8.28;86.79
51603;BME280;37954;51.980;5.850;2024-02-23T11:20:37;98710.06;;;8.23;85.97
51603;BME280;37954;51.980;5.850;2024-02-23T11:24:49;98706.59;;;8.23;85.76
51603;BME280;37954;51.980;5.850;2024-02-23T11:29:12;98730.91;;;8.21;84.94
51603;BME280;37954;51.980;5.850;2024-02-23T11:33:27;98730.66;;;8.23;84.48
51603;BME280;37954;51.980;5.850;2024-02-23T11:37:47;98708.50;;;8.27;85.37
51603;BME280;37954;51.980;5.850;2024-02-23T11:41:59;98714.91;;;8.31;84.78
51603;BME280;37954;51.980;5.850;2024-02-23T11:46:15;98706.88;;;8.26;85.19
51603;BME280;37954;51.980;5.850;2024-02-23T11:50:27;98726.00;;;8.45;85.22
51603;BME280;37954;51.980;5.850;2024-02-23T11:54:39;98730.13;;;8.68;84.43
51603;BME280;37954;51.980;5.850;2024-02-23T11:58:50;98726.66;;;8.67;84.48
51603;BME280;37954;51.980;5.850;2024-02-23T12:03:02;98720.97;;;8.54;83.29
51603;BME280;37954;51.980;5.850;2024-02-23T12:07:14;98712.13;;;8.48;82.78
51603;BME280;37954;51.980;5.850;2024-02-23T12:11:27;98727.09;;;8.49;83.84
51603;BME280;37954;51.980;5.850;2024-02-23T12:15:39;98746.91;;;8.53;83.77
51603;BME280;37954;51.980;5.850;2024-02-23T12:19:57;98742.31;;;8.44;84.03
51603;BME280;37954;51.980;5.850;2024-02-23T12:24:09;98743.38;;;8.43;84.04
51603;BME280;37954;51.980;5.850;2024-02-23T12:28:21;98753.06;;;8.54;84.37
51603;BME280;37954;51.980;5.850;2024-02-23T12:32:33;98742.63;;;8.52;83.99
51603;BME280;37954;51.980;5.850;2024-02-23T12:36:46;98752.03;;;8.60;83.05
51603;BME280;37954;51.980;5.850;2024-02-23T12:40:59;98740.84;;;8.63;83.44
51603;BME280;37954;51.980;5.850;2024-02-23T12:45:10;98739.25;;;8.72;82.49
51603;BME280;37954;51.980;5.850;2024-02-23T12:49:22;98751.63;;;8.83;82.66
51603;BME280;37954;51.980;5.850;2024-02-23T12:57:50;98750.34;;;9.01;82.16
51603;BME280;37954;51.980;5.850;2024-02-23T13:02:02;98745.00;;;9.01;81.67
51603;BME280;37954;51.980;5.850;2024-02-23T13:06:14;98754.13;;;9.05;80.77
51603;BME280;37954;51.980;5.850;2024-02-23T13:10:26;98761.69;;;9.23;80.90
51603;BME280;37954;51.980;5.850;2024-02-23T13:14:38;98761.47;;;9.30;80.52
51603;BME280;37954;51.980;5.850;2024-02-23T13:18:50;98779.47;;;9.55;80.70
51603;BME280;37954;51.980;5.850;2024-02-23T13:23:02;98763.41;;;9.70;79.98
51603;BME280;37954;51.980;5.850;2024-02-23T13:27:13;98773.38;;;10.00;80.04
51603;BME280;37954;51.980;5.850;2024-02-23T13:31:25;98756.47;;;10.40;78.56
51603;BME280;37954;51.980;5.850;2024-02-23T13:35:37;98769.56;;;10.72;76.81
51603;BME280;37954;51.980;5.850;2024-02-23T13:39:48;98753.47;;;10.62;74.78
51603;BME280;37954;51.980;5.850;2024-02-23T13:44:00;98772.00;;;10.63;74.06
51603;BME280;37954;51.980;5.850;2024-02-23T13:48:12;98780.31;;;10.62;74.80
51603;BME280;37954;51.980;5.850;2024-02-23T13:52:24;98770.13;;;10.59;74.59
51603;BME280;37954;51.980;5.850;2024-02-23T13:56:36;98791.59;;;10.69;73.96
51603;BME280;37954;51.980;5.850;2024-02-23T14:00:48;98781.44;;;10.51;74.00
51603;BME280;37954;51.980;5.850;2024-02-23T14:05:01;98798.31;;;10.61;74.58
51603;BME280;37954;51.980;5.850;2024-02-23T14:09:16;98797.50;;;10.66;74.40
51603;BME280;37954;51.980;5.850;2024-02-23T14:13:28;98763.72;;;10.55;74.13
51603;BME280;37954;51.980;5.850;2024-02-23T14:17:40;98782.47;;;10.65;73.37
51603;BME280;37954;51.980;5.850;2024-02-23T14:21:52;98782.72;;;10.73;74.33
51603;BME280;37954;51.980;5.850;2024-02-23T14:26:04;98793.75;;;10.72;73.21
51603;BME280;37954;51.980;5.850;2024-02-23T14:30:15;98799.91;;;10.72;73.31
51603;BME280;37954;51.980;5.850;2024-02-23T14:34:27;98802.34;;;10.64;72.97
51603;BME280;37954;51.980;5.850;2024-02-23T14:38:40;98790.81;;;10.43;73.20
51603;BME280;37954;51.980;5.850;2024-02-23T14:42:52;98801.28;;;10.29;73.02
51603;BME280;37954;51.980;5.850;2024-02-23T14:47:04;98818.69;;;10.11;73.17
51603;BME280;37954;51.980;5.850;2024-02-23T14:51:16;98814.69;;;10.04;74.22
51603;BME280;37954;51.980;5.850;2024-02-23T14:55:28;98814.09;;;9.82;74.58
51603;BME280;37954;51.980;5.850;2024-02-23T14:59:40;98819.97;;;9.63;75.44
51603;BME280;37954;51.980;5.850;2024-02-23T15:03:58;98795.75;;;9.33;77.80
51603;BME280;37954;51.980;5.850;2024-02-23T15:08:09;98824.47;;;9.48;78.91
51603;BME280;37954;51.980;5.850;2024-02-23T15:12:21;98821.19;;;9.35;79.16
51603;BME280;37954;51.980;5.850;2024-02-23T15:16:33;98816.94;;;9.34;80.26
51603;BME280;37954;51.980;5.850;2024-02-23T15:20:45;98830.03;;;9.36;80.58
51603;BME280;37954;51.980;5.850;2024-02-23T15:24:58;98827.63;;;9.29;80.26
51603;BME280;37954;51.980;5.850;2024-02-23T15:29:11;98832.16;;;9.29;80.67
51603;BME280;37954;51.980;5.850;2024-02-23T15:33:24;98847.69;;;9.27;81.05
51603;BME280;37954;51.980;5.850;2024-02-23T15:37:36;98849.78;;;9.20;81.67
51603;BME280;37954;51.980;5.850;2024-02-23T15:41:47;98856.50;;;9.17;82.22
51603;BME280;37954;51.980;5.850;2024-02-23T15:45:59;98867.44;;;9.11;83.63
51603;BME280;37954;51.980;5.850;2024-02-23T15:50:11;98847.56;;;9.01;84.82
51603;BME280;37954;51.980;5.850;2024-02-23T15:54:43;98846.91;;;8.84;87.32
51603;BME280;37954;51.980;5.850;2024-02-23T15:58:55;98856.56;;;8.80;88.05
51603;BME280;37954;51.980;5.850;2024-02-23T16:03:07;98843.44;;;8.84;88.51
51603;BME280;37954;51.980;5.850;2024-02-23T16:07:18;98847.97;;;8.83;88.81
51603;BME280;37954;51.980;5.850;2024-02-23T16:11:30;98860.59;;;8.88;89.33
51603;BME280;37954;51.980;5.850;2024-02-23T16:15:46;98857.88;;;8.78;88.64
51603;BME280;37954;51.980;5.850;2024-02-23T16:19:59;98851.06;;;8.60;88.91
51603;BME280;37954;51.980;5.850;2024-02-23T16:24:11;98845.09;;;8.48;88.60
51603;BME280;37954;51.980;5.850;2024-02-23T16:28:23;98845.25;;;8.36;88.17
51603;BME280;37954;51.980;5.850;2024-02-23T16:32:34;98880.06;;;8.41;87.83
51603;BME280;37954;51.980;5.850;2024-02-23T16:36:47;98885.16;;;8.43;88.59
51603;BME280;37954;51.980;5.850;2024-02-23T16:40:58;98885.72;;;8.45;88.58
51603;BME280;37954;51.980;5.850;2024-02-23T16:45:10;98888.41;;;8.45;88.67
51603;BME280;37954;51.980;5.850;2024-02-23T16:49:21;98864.47;;;8.33;88.79
51603;BME280;37954;51.980;5.850;2024-02-23T16:53:33;98881.69;;;8.42;88.86
51603;BME280;37954;51.980;5.850;2024-02-23T16:57:45;98870.63;;;8.33;89.28
51603;BME280;37954;51.980;5.850;2024-02-23T17:01:56;98863.81;;;8.21;88.76
51603;BME280;37954;51.980;5.850;2024-02-23T17:06:09;98885.00;;;8.27;88.21
51603;BME280;37954;51.980;5.850;2024-02-23T17:10:21;98860.81;;;8.17;88.30
51603;BME280;37954;51.980;5.850;2024-02-23T17:14:33;98873.75;;;8.25;87.88
51603;BME280;37954;51.980;5.850;2024-02-23T17:18:44;98878.34;;;8.30;87.73
51603;BME280;37954;51.980;5.850;2024-02-23T17:22:56;98890.59;;;8.26;87.33
51603;BME280;37954;51.980;5.850;2024-02-23T17:27:09;98896.25;;;8.29;86.84
51603;BME280;37954;51.980;5.850;2024-02-23T17:31:20;98891.72;;;8.30;86.15
51603;BME280;37954;51.980;5.850;2024-02-23T17:35:32;98873.94;;;8.19;86.47
51603;BME280;37954;51.980;5.850;2024-02-23T17:39:44;98889.34;;;8.33;86.61
51603;BME280;37954;51.980;5.850;2024-02-23T17:43:55;98894.44;;;8.35;86.19
51603;BME280;37954;51.980;5.850;2024-02-23T17:48:08;98872.34;;;8.18;86.46
51603;BME280;37954;51.980;5.850;2024-02-23T17:52:20;98874.69;;;8.14;85.91
51603;BME280;37954;51.980;5.850;2024-02-23T17:56:32;98914.19;;;8.29;85.75
51603;BME280;37954;51.980;5.850;2024-02-23T18:00:43;98911.75;;;8.27;85.48
51603;BME280;37954;51.980;5.850;2024-02-23T18:04:58;98918.72;;;8.28;84.94
51603;BME280;37954;51.980;5.850;2024-02-23T18:09:09;98916.53;;;8.25;84.60
51603;BME280;37954;51.980;5.850;2024-02-23T18:13:21;98924.06;;;8.28;84.32
51603;BME280;37954;51.980;5.850;2024-02-23T18:17:34;98938.81;;;8.31;83.71
51603;BME280;37954;51.980;5.850;2024-02-23T18:21:46;98931.84;;;8.30;83.33
51603;BME280;37954;51.980;5.850;2024-02-23T18:31:00;98950.28;;;8.31;83.19
51603;BME280;37954;51.980;5.850;2024-02-23T18:35:12;98947.59;;;8.31;82.16
51603;BME280;37954;51.980;5.850;2024-02-23T18:39:23;98947.59;;;8.26;81.08
51603;BME280;37954;51.980;5.850;2024-02-23T18:43:35;98949.13;;;8.22;80.79
51603;BME280;37954;51.980;5.850;2024-02-23T18:47:55;98953.38;;;8.18;81.16
51603;BME280;37954;51.980;5.850;2024-02-23T18:52:07;98953.38;;;8.18;80.65
51603;BME280;37954;51.980;5.850;2024-02-23T18:56:21;98956.53;;;8.15;80.52
51603;BME280;37954;51.980;5.850;2024-02-23T19:00:33;98962.94;;;8.14;80.68
51603;BME280;37954;51.980;5.850;2024-02-23T19:04:44;98955.38;;;8.06;80.51
51603;BME280;37954;51.980;5.850;2024-02-23T19:08:56;98957.00;;;8.07;81.09
51603;BME280;37954;51.980;5.850;2024-02-23T19:13:07;98939.84;;;8.03;80.86
51603;BME280;37954;51.980;5.850;2024-02-23T19:17:19;98952.97;;;8.04;80.75
51603;BME280;37954;51.980;5.850;2024-02-23T19:21:31;98952.47;;;8.08;81.03
51603;BME280;37954;51.980;5.850;2024-02-23T19:25:43;98965.91;;;8.13;81.10
51603;BME280;37954;51.980;5.850;2024-02-23T19:29:54;98954.31;;;8.07;81.61
51603;BME280;37954;51.980;5.850;2024-02-23T19:34:06;98946.25;;;8.02;81.79
51603;BME280;37954;51.980;5.850;2024-02-23T19:38:18;98972.84;;;8.14;81.99
51603;BME280;37954;51.980;5.850;2024-02-23T19:42:30;98973.63;;;8.14;81.98
51603;BME280;37954;51.980;5.850;2024-02-23T19:46:42;98974.19;;;8.16;82.19
51603;BME280;37954;51.980;5.850;2024-02-23T19:50:53;98977.19;;;8.20;82.27
51603;BME280;37954;51.980;5.850;2024-02-23T19:55:05;98962.84;;;8.04;82.49
51603;BME280;37954;51.980;5.850;2024-02-23T19:59:17;98977.13;;;8.15;82.60
51603;BME280;37954;51.980;5.850;2024-02-23T20:03:29;98979.00;;;8.14;82.73
51603;BME280;37954;51.980;5.850;2024-02-23T20:07:40;98972.56;;;8.10;83.38
51603;BME280;37954;51.980;5.850;2024-02-23T20:11:52;98973.28;;;8.06;83.15
51603;BME280;37954;51.980;5.850;2024-02-23T20:16:04;98975.66;;;8.02;83.49
51603;BME280;37954;51.980;5.850;2024-02-23T20:20:16;98979.63;;;7.99;83.94
51603;BME280;37954;51.980;5.850;2024-02-23T20:24:53;98989.56;;;8.04;84.00
51603;BME280;37954;51.980;5.850;2024-02-23T20:29:05;98991.13;;;8.00;84.77
51603;BME280;37954;51.980;5.850;2024-02-23T20:33:16;98992.44;;;7.97;84.23
51603;BME280;37954;51.980;5.850;2024-02-23T20:37:28;98978.25;;;7.97;84.93
51603;BME280;37954;51.980;5.850;2024-02-23T20:41:41;98987.59;;;7.94;84.79
51603;BME280;37954;51.980;5.850;2024-02-23T20:45:52;98990.56;;;7.98;84.89
51603;BME280;37954;51.980;5.850;2024-02-23T20:50:04;98992.72;;;7.96;84.99
51603;BME280;37954;51.980;5.850;2024-02-23T20:54:16;98989.97;;;7.91;85.08
51603;BME280;37954;51.980;5.850;2024-02-23T20:58:30;98994.44;;;7.85;85.01
51603;BME280;37954;51.980;5.850;2024-02-23T21:02:41;98993.53;;;7.80;85.22
51603;BME280;37954;51.980;5.850;2024-02-23T21:06:53;99001.53;;;7.75;85.36
51603;BME280;37954;51.980;5.850;2024-02-23T21:11:05;98999.25;;;7.66;85.60
51603;BME280;37954;51.980;5.850;2024-02-23T21:15:17;99003.00;;;7.65;85.89
51603;BME280;37954;51.980;5.850;2024-02-23T21:19:29;98983.91;;;7.57;86.26
51603;BME280;37954;51.980;5.850;2024-02-23T21:23:40;99000.44;;;7.54;86.67
51603;BME280;37954;51.980;5.850;2024-02-23T21:27:56;99006.44;;;7.44;86.77
51603;BME280;37954;51.980;5.850;2024-02-23T21:32:08;99012.28;;;7.41;87.07
51603;BME280;37954;51.980;5.850;2024-02-23T21:36:20;99010.09;;;7.38;87.62
51603;BME280;37954;51.980;5.850;2024-02-23T21:40:31;99006.44;;;7.44;88.03
51603;BME280;37954;51.980;5.850;2024-02-23T21:44:43;99024.63;;;7.47;88.34
51603;BME280;37954;51.980;5.850;2024-02-23T21:48:55;99033.78;;;7.51;88.28
51603;BME280;37954;51.980;5.850;2024-02-23T21:53:06;99009.41;;;7.48;87.94
51603;BME280;37954;51.980;5.850;2024-02-23T21:57:18;99015.31;;;7.50;88.20
51603;BME280;37954;51.980;5.850;2024-02-23T22:01:30;99009.03;;;7.39;88.15
51603;BME280;37954;51.980;5.850;2024-02-23T22:05:44;99017.13;;;7.44;87.90
51603;BME280;37954;51.980;5.850;2024-02-23T22:09:56;99003.28;;;7.30;87.78
51603;BME280;37954;51.980;5.850;2024-02-23T22:14:08;99004.94;;;7.15;88.03
51603;BME280;37954;51.980;5.850;2024-02-23T22:18:22;99019.56;;;7.12;88.25
51603;BME280;37954;51.980;5.850;2024-02-23T22:22:34;99015.13;;;7.01;88.66
51603;BME280;37954;51.980;5.850;2024-02-23T22:26:46;99010.25;;;6.98;89.27
51603;BME280;37954;51.980;5.850;2024-02-23T22:30:58;99014.16;;;7.07;89.49
51603;BME280;37954;51.980;5.850;2024-02-23T22:35:11;99016.50;;;7.04;89.88
51603;BME280;37954;51.980;5.850;2024-02-23T22:39:23;99015.50;;;6.93;90.19